Time;durP1;ratioP1;P1;durP2;ratioP2;P2;SDS_P1;SDS_P2;PMS_P1;PMS_P2;Temp;Humidity;BMP_temperature;BMP_pressure;BME280_temperature;BME280_humidity;BME280_pressure;Samples;Min_cycle;Max_cycle;Signal;HPM_P1;HPM_P2
2021/04/29 00:00:15;;;;;;;8.18;7.38;;;13.10;99.90;;;;;;5050336;28;20169;-52
2021/04/29 00:02:42;;;;;;;11.05;8.40;;;13.20;99.90;;;;;;5050672;28;20296;-52
2021/04/29 00:05:10;;;;;;;8.88;8.10;;;13.00;99.90;;;;;;5049361;28;20177;-53
2021/04/29 00:07:36;;;;;;;8.85;7.95;;;13.30;99.90;;;;;;5051476;28;20555;-52
2021/04/29 00:10:05;;;;;;;10.20;9.20;;;13.40;99.90;;;;;;5051084;28;20185;-53
2021/04/29 00:12:30;;;;;;;9.40;8.52;;;13.20;99.90;;;;;;5050125;28;20766;-52
2021/04/29 00:14:56;;;;;;;10.00;8.67;;;13.20;99.90;;;;;;5045264;28;20197;-52
2021/04/29 00:17:22;;;;;;;9.90;9.00;;;13.30;99.90;;;;;;5047063;28;20185;-53
2021/04/29 00:19:47;;;;;;;9.10;8.20;;;13.40;99.90;;;;;;5049514;28;20506;-53
2021/04/29 00:22:13;;;;;;;9.80;8.90;;;13.30;99.90;;;;;;5049462;28;20201;-53
2021/04/29 00:24:38;;;;;;;9.67;8.67;;;13.30;99.90;;;;;;5049320;28;20180;-52
2021/04/29 00:27:05;;;;;;;9.60;8.60;;;13.40;99.90;;;;;;5049385;28;20186;-52
2021/04/29 00:29:30;;;;;;;9.60;8.70;;;13.30;99.90;;;;;;5049219;28;20195;-52
2021/04/29 00:31:56;;;;;;;8.30;7.60;;;13.30;99.90;;;;;;5049265;28;20589;-52
2021/04/29 00:34:21;;;;;;;10.40;9.30;;;13.40;99.90;;;;;;5048967;28;20193;-52
2021/04/29 00:36:47;;;;;;;10.07;9.17;;;13.60;99.90;;;;;;5049409;28;20200;-53
2021/04/29 00:39:12;;;;;;;9.43;8.43;;;13.40;99.90;;;;;;5048671;28;20227;-52
2021/04/29 00:41:38;;;;;;;9.90;8.90;;;13.20;99.90;;;;;;5048769;28;20180;-52
2021/04/29 00:44:04;;;;;;;10.83;9.77;;;13.20;99.90;;;;;;5049183;28;20671;-53
2021/04/29 00:46:30;;;;;;;10.07;9.17;;;13.20;99.90;;;;;;5048742;28;20494;-52
2021/04/29 00:48:55;;;;;;;11.30;9.53;;;13.40;99.90;;;;;;5049100;28;20222;-52
2021/04/29 00:51:21;;;;;;;10.67;9.67;;;13.40;99.90;;;;;;5048873;28;20181;-52
2021/04/29 00:53:47;;;;;;;13.43;9.47;;;13.40;99.90;;;;;;5045900;28;20431;-52
2021/04/29 00:56:13;;;;;;;9.95;9.05;;;13.40;99.90;;;;;;5048342;28;20436;-52
2021/04/29 00:58:39;;;;;;;9.82;8.82;;;13.40;99.90;;;;;;5048539;28;20213;-53
2021/04/29 01:01:07;;;;;;;10.10;9.18;;;13.30;99.90;;;;;;5048461;28;20277;-52
2021/04/29 01:03:55;;;;;;;10.02;9.10;;;13.40;99.90;;;;;;5048621;28;20208;-52
2021/04/29 01:06:51;;;;;;;10.60;9.60;;;13.20;99.90;;;;;;5046858;28;20198;-52
2021/04/29 01:09:31;;;;;;;10.68;9.60;;;13.10;99.90;;;;;;5045064;28;20193;-52
2021/04/29 01:12:04;;;;;;;10.80;9.75;;;13.10;99.90;;;;;;5048454;28;20213;-52
2021/04/29 01:14:30;;;;;;;11.07;9.98;;;13.30;99.90;;;;;;5048103;28;20229;-52
2021/04/29 01:16:58;;;;;;;11.18;9.20;;;13.30;99.90;;;;;;5048038;28;20181;-52
2021/04/29 01:19:36;;;;;;;10.63;9.73;;;13.60;99.90;;;;;;5046483;28;20240;-52
2021/04/29 01:22:02;;;;;;;9.90;8.90;;;13.30;99.90;;;;;;5048270;28;20226;-53
2021/04/29 01:24:31;;;;;;;9.60;8.60;;;13.30;99.90;;;;;;5048137;28;20596;-52
2021/04/29 01:27:02;;;;;;;9.63;8.55;;;13.40;99.90;;;;;;5048375;28;20181;-52
2021/04/29 01:29:31;;;;;;;10.20;9.20;;;13.20;99.90;;;;;;5048174;28;20178;-52
2021/04/29 01:31:58;;;;;;;7.97;7.25;;;13.10;99.90;;;;;;5040910;28;20338;-52
2021/04/29 01:34:27;;;;;;;9.23;7.35;;;13.20;99.90;;;;;;5047905;28;20243;-53
2021/04/29 01:36:54;;;;;;;7.47;6.78;;;13.50;99.90;;;;;;5046519;28;20193;-52
2021/04/29 01:39:21;;;;;;;5.55;5.10;;;13.30;99.90;;;;;;5047782;28;20288;-52
2021/04/29 01:41:52;;;;;;;5.57;5.07;;;13.50;99.90;;;;;;5047724;28;20208;-52
2021/04/29 01:44:23;;;;;;;5.40;4.97;;;13.50;99.90;;;;;;5049467;28;20174;-53
2021/04/29 01:46:49;;;;;;;4.78;4.38;;;13.60;99.90;;;;;;5047847;28;20178;-52
2021/04/29 01:49:16;;;;;;;5.35;4.22;;;13.70;99.90;;;;;;5044741;28;20194;-53
2021/04/29 01:51:42;;;;;;;5.45;4.95;;;13.50;99.90;;;;;;5047575;28;20621;-52
2021/04/29 01:54:11;;;;;;;4.80;4.40;;;13.60;99.90;;;;;;5047745;28;20178;-52
2021/04/29 01:56:38;;;;;;;3.70;3.45;;;13.80;99.90;;;;;;5047348;28;20661;-52
2021/04/29 01:59:05;;;;;;;4.90;4.32;;;13.60;99.90;;;;;;5046563;28;20197;-53
2021/04/29 02:01:31;;;;;;;5.00;4.60;;;13.70;99.90;;;;;;5047679;28;20177;-52
2021/04/29 02:03:57;;;;;;;3.97;3.57;;;13.50;99.90;;;;;;5043844;28;20592;-52
2021/04/29 02:06:23;;;;;;;5.47;4.87;;;13.80;99.90;;;;;;5047623;28;20432;-53
2021/04/29 02:08:49;;;;;;;5.17;3.00;;;13.60;99.90;;;;;;5047579;28;20436;-51
2021/04/29 02:11:15;;;;;;;3.05;2.85;;;14.00;99.90;;;;;;5047664;28;20443;-52
2021/04/29 02:13:46;;;;;;;2.47;2.30;;;13.70;99.90;;;;;;5047408;28;20205;-52
2021/04/29 02:16:37;;;;;;;2.40;2.20;;;13.60;99.90;;;;;;5047440;28;20539;-52
2021/04/29 02:19:05;;;;;;;2.63;2.20;;;13.60;99.90;;;;;;5046410;28;20202;-53
2021/04/29 02:21:32;;;;;;;1.90;1.80;;;14.00;99.90;;;;;;5047423;28;20253;-53
2021/04/29 02:23:58;;;;;;;1.70;1.60;;;13.70;99.90;;;;;;5047222;28;20181;-52
2021/04/29 02:26:24;;;;;;;2.57;2.37;;;13.60;99.90;;;;;;5047429;28;20550;-52
2021/04/29 02:28:51;;;;;;;1.83;1.73;;;13.90;99.90;;;;;;5047395;28;20289;-52
2021/04/29 02:31:17;;;;;;;1.88;1.77;;;13.90;99.90;;;;;;5047118;28;20251;-53
2021/04/29 02:33:43;;;;;;;2.10;1.83;;;13.90;99.90;;;;;;5047080;28;20255;-53
2021/04/29 02:36:09;;;;;;;1.60;1.50;;;13.80;99.90;;;;;;5047203;28;20192;-53
2021/04/29 02:38:37;;;;;;;1.77;1.40;;;13.50;99.90;;;;;;5046875;28;20453;-52
2021/04/29 02:41:05;;;;;;;1.58;1.48;;;13.50;99.90;;;;;;5046943;28;20477;-52
2021/04/29 02:43:31;;;;;;;1.65;1.55;;;13.70;99.90;;;;;;5043522;28;20197;-52
2021/04/29 02:45:57;;;;;;;1.20;0.93;;;13.50;99.90;;;;;;5041537;28;20649;-52
2021/04/29 02:48:24;;;;;;;1.30;1.20;;;13.50;99.90;;;;;;5046600;28;20191;-52
2021/04/29 02:50:50;;;;;;;1.38;1.27;;;13.80;99.90;;;;;;5046819;28;20463;-52
2021/04/29 02:53:18;;;;;;;1.20;1.10;;;13.80;99.90;;;;;;5046768;28;20236;-52
2021/04/29 02:55:46;;;;;;;1.50;1.40;;;13.80;99.90;;;;;;5047665;28;20226;-53
2021/04/29 02:58:13;;;;;;;2.03;1.50;;;13.70;99.90;;;;;;5047079;28;20229;-52
2021/04/29 03:00:40;;;;;;;2.22;2.03;;;13.70;99.90;;;;;;5047085;28;20260;-52
2021/04/29 03:03:09;;;;;;;2.13;1.90;;;13.70;99.90;;;;;;5046758;28;20263;-52
2021/04/29 03:05:37;;;;;;;4.35;1.45;;;13.50;99.90;;;;;;5047168;28;20185;-52
2021/04/29 03:08:03;;;;;;;1.20;1.10;;;13.40;99.90;;;;;;5045585;28;20514;-52
2021/04/29 03:10:30;;;;;;;1.50;1.40;;;13.40;99.90;;;;;;5050335;28;20212;-53
2021/04/29 03:12:55;;;;;;;1.40;1.30;;;13.60;99.90;;;;;;5048141;28;20296;-53
2021/04/29 03:15:21;;;;;;;1.30;1.20;;;13.20;99.90;;;;;;5051160;28;20272;-53
2021/04/29 03:17:47;;;;;;;1.67;1.57;;;13.30;99.90;;;;;;5057449;28;20455;-52
2021/04/29 03:20:14;;;;;;;1.50;1.40;;;13.40;99.90;;;;;;5050705;28;20178;-53
2021/04/29 03:22:40;;;;;;;1.30;1.20;;;13.30;99.90;;;;;;5050538;28;20225;-53
2021/04/29 03:25:06;;;;;;;1.53;1.43;;;13.20;99.90;;;;;;5050695;28;20205;-52
2021/04/29 03:27:32;;;;;;;1.90;1.58;;;13.10;99.90;;;;;;5050771;28;20173;-53
2021/04/29 03:29:57;;;;;;;1.90;1.53;;;13.10;99.90;;;;;;5050237;28;20178;-53
2021/04/29 03:32:23;;;;;;;1.67;1.50;;;13.10;99.90;;;;;;5050626;28;20726;-53
2021/04/29 03:34:49;;;;;;;1.30;1.20;;;13.10;99.90;;;;;;5050205;28;20596;-53
2021/04/29 03:37:15;;;;;;;1.33;1.20;;;13.40;99.90;;;;;;5050235;28;20184;-52
2021/04/29 03:39:41;;;;;;;1.92;1.35;;;13.00;99.90;;;;;;5050005;28;20220;-52
2021/04/29 03:42:07;;;;;;;1.63;1.53;;;13.20;99.90;;;;;;5050823;28;20197;-52
2021/04/29 03:44:36;;;;;;;1.33;1.23;;;13.10;99.90;;;;;;5050884;28;20215;-52
2021/04/29 03:47:03;;;;;;;1.60;1.30;;;13.20;99.90;;;;;;5050491;28;20460;-53
2021/04/29 03:49:28;;;;;;;1.30;1.20;;;13.10;99.90;;;;;;5050732;28;20192;-52
2021/04/29 03:51:54;;;;;;;2.00;1.10;;;12.90;99.90;;;;;;5050282;28;20593;-52
2021/04/29 03:54:20;;;;;;;1.30;1.20;;;13.30;99.90;;;;;;5050466;28;20185;-53
2021/04/29 03:56:50;;;;;;;0.80;0.80;;;13.10;99.90;;;;;;5050032;28;20284;-53
2021/04/29 03:59:16;;;;;;;1.30;1.20;;;13.20;99.90;;;;;;5049423;28;20543;-53
2021/04/29 04:01:42;;;;;;;1.03;0.93;;;13.30;99.90;;;;;;5050394;28;20289;-52
2021/04/29 04:04:07;;;;;;;1.10;1.00;;;13.10;99.90;;;;;;5049315;28;20700;-52
2021/04/29 04:06:33;;;;;;;1.90;1.30;;;13.10;99.90;;;;;;5049945;28;20208;-52
2021/04/29 04:08:59;;;;;;;1.30;1.20;;;13.20;99.90;;;;;;5049999;28;20659;-52
2021/04/29 04:11:24;;;;;;;1.47;0.90;;;13.10;99.90;;;;;;5049702;28;20322;-52
2021/04/29 04:13:50;;;;;;;1.00;0.90;;;12.90;99.90;;;;;;5049432;28;20235;-52
2021/04/29 04:16:16;;;;;;;1.63;1.03;;;12.70;99.90;;;;;;5049466;28;20182;-51
2021/04/29 04:18:44;;;;;;;0.93;0.90;;;13.10;99.90;;;;;;5046850;28;20842;-52
2021/04/29 04:21:10;;;;;;;1.25;1.15;;;12.90;99.90;;;;;;5047590;28;20440;-52
2021/04/29 04:23:36;;;;;;;1.43;0.90;;;12.70;99.90;;;;;;5049527;28;20211;-51
2021/04/29 04:26:02;;;;;;;1.10;1.02;;;12.80;99.90;;;;;;5049644;28;20437;-52
2021/04/29 04:28:29;;;;;;;1.30;1.20;;;12.70;99.90;;;;;;5049420;28;20691;-51
2021/04/29 04:30:55;;;;;;;1.17;1.08;;;12.90;99.90;;;;;;5046771;28;20204;-52
2021/04/29 04:33:22;;;;;;;1.02;0.93;;;12.70;99.90;;;;;;5042697;28;20371;-52
2021/04/29 04:35:48;;;;;;;1.15;1.05;;;12.70;99.90;;;;;;5046556;28;20193;-52
2021/04/29 04:38:13;;;;;;;1.20;1.10;;;12.90;99.90;;;;;;5041645;28;20580;-51
2021/04/29 04:40:39;;;;;;;1.10;1.00;;;12.70;99.90;;;;;;5048720;28;20177;-52
2021/04/29 04:43:05;;;;;;;1.20;1.10;;;12.70;99.90;;;;;;5047307;28;20280;-52
2021/04/29 04:45:30;;;;;;;1.30;1.20;;;12.80;99.90;;;;;;5045685;28;20440;-52
2021/04/29 04:47:56;;;;;;;2.23;1.40;;;12.70;99.90;;;;;;5047509;28;20224;-52
2021/04/29 04:50:22;;;;;;;1.63;1.20;;;12.90;99.90;;;;;;5046949;28;20185;-52
2021/04/29 04:52:47;;;;;;;1.40;1.30;;;13.20;99.90;;;;;;5063223;28;20495;-52
2021/04/29 04:55:13;;;;;;;2.23;1.30;;;13.10;99.90;;;;;;5043271;28;20620;-51
2021/04/29 04:57:39;;;;;;;1.50;1.40;;;12.80;99.90;;;;;;5045767;28;20192;-51
2021/04/29 05:00:07;;;;;;;2.27;1.87;;;13.00;99.90;;;;;;5046944;28;20189;-52
2021/04/29 05:02:36;;;;;;;2.08;1.88;;;12.80;99.90;;;;;;5044256;28;20614;-51
2021/04/29 05:05:04;;;;;;;2.40;1.70;;;12.90;99.90;;;;;;5045863;28;20220;-52
2021/04/29 05:07:31;;;;;;;1.90;1.80;;;13.00;99.90;;;;;;5046479;28;20200;-51
2021/04/29 05:09:57;;;;;;;2.45;2.15;;;13.10;99.90;;;;;;5045554;28;20628;-52
2021/04/29 05:12:23;;;;;;;1.60;1.50;;;12.90;99.90;;;;;;5041246;28;20260;-49
2021/04/29 05:14:48;;;;;;;2.37;2.17;;;12.80;99.90;;;;;;5047487;28;20581;-49
2021/04/29 05:17:14;;;;;;;4.07;2.10;;;13.20;99.90;;;;;;5048311;28;20181;-49
2021/04/29 05:19:39;;;;;;;1.90;1.77;;;13.40;99.90;;;;;;5041672;28;20443;-50
2021/04/29 05:22:05;;;;;;;2.13;1.93;;;13.40;99.90;;;;;;5047438;28;20246;-49
2021/04/29 05:24:31;;;;;;;2.97;2.10;;;13.30;99.90;;;;;;5047974;28;20170;-49
2021/04/29 05:26:56;;;;;;;2.00;1.80;;;13.40;99.90;;;;;;5044795;28;20208;-48
2021/04/29 05:29:22;;;;;;;2.00;1.90;;;13.10;99.90;;;;;;5045617;28;20689;-50
2021/04/29 05:31:48;;;;;;;3.13;2.27;;;12.80;99.90;;;;;;5045693;28;20723;-49
2021/04/29 05:34:14;;;;;;;3.43;2.70;;;13.20;99.90;;;;;;5046659;28;20185;-50
2021/04/29 05:36:39;;;;;;;2.23;2.03;;;13.20;99.90;;;;;;5046924;28;20232;-50
2021/04/29 05:39:05;;;;;;;2.50;2.30;;;13.00;99.90;;;;;;5036252;28;20317;-49
2021/04/29 05:41:31;;;;;;;2.80;2.60;;;12.90;99.90;;;;;;5037353;28;20185;-54
2021/04/29 05:43:57;;;;;;;3.70;2.77;;;13.10;99.90;;;;;;5034457;28;20189;-53
2021/04/29 05:46:23;;;;;;;3.40;2.60;;;12.80;99.90;;;;;;5033710;28;20446;-52
2021/04/29 05:48:48;;;;;;;3.07;2.67;;;12.90;99.90;;;;;;5034997;28;20239;-54
2021/04/29 05:51:14;;;;;;;8.10;5.87;;;12.90;99.90;;;;;;5035416;28;20196;-54
2021/04/29 05:53:40;;;;;;;3.47;3.00;;;12.80;99.90;;;;;;5042394;28;20215;-53
2021/04/29 05:56:05;;;;;;;2.50;2.30;;;12.60;99.90;;;;;;5043121;28;20196;-59
2021/04/29 05:58:31;;;;;;;5.00;2.57;;;12.80;99.90;;;;;;5046427;28;20452;-59
2021/04/29 06:00:57;;;;;;;2.70;2.50;;;13.00;99.90;;;;;;5045716;28;20188;-59
2021/04/29 06:03:22;;;;;;;2.80;2.60;;;12.80;99.90;;;;;;5046519;28;20208;-59
2021/04/29 06:05:49;;;;;;;2.67;2.47;;;13.10;99.90;;;;;;5046212;28;20241;-54
2021/04/29 06:08:15;;;;;;;2.85;2.60;;;13.10;99.90;;;;;;5047126;28;20440;-54
2021/04/29 06:10:40;;;;;;;3.00;2.80;;;13.30;99.90;;;;;;5047655;28;20192;-53
2021/04/29 06:13:06;;;;;;;5.00;2.80;;;13.40;99.90;;;;;;5043075;28;20216;-49
2021/04/29 06:15:32;;;;;;;3.57;3.27;;;13.50;99.90;;;;;;5048801;28;20217;-51
2021/04/29 06:17:57;;;;;;;3.10;2.90;;;13.80;99.90;;;;;;5047878;28;20251;-54
2021/04/29 06:20:23;;;;;;;3.67;3.20;;;13.80;99.90;;;;;;5042186;28;20182;-52
2021/04/29 06:22:49;;;;;;;3.90;2.90;;;14.00;99.90;;;;;;5045744;28;20209;-51
2021/04/29 06:25:15;;;;;;;3.40;3.10;;;14.20;99.90;;;;;;5046903;28;20219;-52
2021/04/29 06:27:40;;;;;;;5.17;2.93;;;14.50;99.90;;;;;;5044851;28;20424;-51
2021/04/29 06:30:08;;;;;;;3.17;2.87;;;14.40;99.90;;;;;;5035617;28;20943;-50
2021/04/29 06:32:34;;;;;;;3.25;2.50;;;14.70;99.90;;;;;;5038147;28;21125;-53
2021/04/29 06:35:00;;;;;;;3.97;3.10;;;14.70;99.10;;;;;;5042662;28;20562;-52
2021/04/29 06:37:26;;;;;;;3.30;3.00;;;14.80;99.00;;;;;;5045595;28;20174;-52
2021/04/29 06:39:52;;;;;;;3.80;3.40;;;14.50;98.60;;;;;;5042516;28;20440;-51
2021/04/29 06:42:17;;;;;;;5.93;3.07;;;14.70;99.10;;;;;;5047705;28;20694;-52
2021/04/29 06:44:43;;;;;;;3.90;3.50;;;14.60;99.20;;;;;;5051487;28;20439;-51
2021/04/29 06:47:10;;;;;;;3.90;3.00;;;14.40;99.20;;;;;;5051529;28;20181;-51
2021/04/29 06:49:36;;;;;;;3.97;3.30;;;14.80;99.10;;;;;;5052846;28;20462;-53
2021/04/29 06:52:02;;;;;;;4.85;4.43;;;15.10;98.20;;;;;;5046858;28;20292;-51
2021/04/29 06:54:28;;;;;;;4.30;3.90;;;15.70;97.20;;;;;;5051151;28;20185;-52
2021/04/29 06:56:54;;;;;;;5.73;4.47;;;16.00;96.30;;;;;;5051364;28;20659;-53
2021/04/29 06:59:20;;;;;;;4.20;3.80;;;16.20;95.90;;;;;;5053345;28;20216;-52
2021/04/29 07:01:46;;;;;;;4.35;3.95;;;16.80;95.30;;;;;;5052882;28;20189;-51
2021/04/29 07:04:11;;;;;;;5.67;4.20;;;16.50;94.20;;;;;;5052950;28;20185;-51
2021/04/29 07:06:37;;;;;;;5.67;5.10;;;16.90;94.40;;;;;;5052949;28;20608;-52
2021/04/29 07:09:04;;;;;;;4.15;3.85;;;17.50;93.30;;;;;;5052726;28;20268;-51
2021/04/29 07:11:31;;;;;;;4.80;4.30;;;18.30;91.00;;;;;;5051813;28;20185;-51
2021/04/29 07:13:57;;;;;;;4.60;4.20;;;18.80;89.00;;;;;;5052609;28;20541;-52
2021/04/29 07:16:23;;;;;;;4.13;3.60;;;18.50;88.10;;;;;;5050035;28;20220;-52
2021/04/29 07:18:49;;;;;;;5.20;4.27;;;18.00;90.20;;;;;;5050272;28;20225;-53
2021/04/29 07:21:14;;;;;;;6.50;4.50;;;17.90;90.90;;;;;;5053463;28;20181;-52
2021/04/29 07:23:40;;;;;;;5.87;4.67;;;17.80;90.50;;;;;;5052259;28;20615;-52
2021/04/29 07:26:06;;;;;;;5.80;4.20;;;17.40;90.80;;;;;;5053063;28;20180;-51
2021/04/29 07:28:31;;;;;;;4.40;4.00;;;17.60;91.20;;;;;;5052904;28;20231;-53
2021/04/29 07:30:57;;;;;;;5.73;5.07;;;17.50;90.90;;;;;;5052973;28;20660;-53
2021/04/29 07:33:23;;;;;;;6.73;4.50;;;17.60;91.50;;;;;;5046806;28;20576;-53
2021/04/29 07:35:48;;;;;;;4.83;4.33;;;17.70;91.40;;;;;;5052364;28;20212;-52
2021/04/29 07:38:14;;;;;;;6.43;4.90;;;17.80;91.00;;;;;;5053026;28;20230;-51
2021/04/29 07:40:40;;;;;;;5.70;4.95;;;17.70;90.00;;;;;;5034306;28;20942;-51
2021/04/29 07:43:06;;;;;;;5.67;5.17;;;17.60;90.00;;;;;;5052370;28;20747;-53
2021/04/29 07:45:32;;;;;;;5.40;4.80;;;17.70;90.50;;;;;;5053179;28;20241;-53
2021/04/29 07:47:58;;;;;;;4.85;4.35;;;18.00;90.50;;;;;;5052974;28;20196;-54
2021/04/29 07:50:24;;;;;;;5.05;4.65;;;18.70;89.80;;;;;;5052177;28;20547;-53
2021/04/29 07:52:50;;;;;;;4.80;4.30;;;19.90;86.80;;;;;;5055548;28;20216;-51
2021/04/29 07:55:17;;;;;;;10.53;8.03;;;21.40;81.80;;;;;;5047688;28;20438;-51
2021/04/29 07:57:44;;;;;;;4.73;4.33;;;22.00;76.90;;;;;;5047130;28;20209;-52
2021/04/29 08:00:14;;;;;;;8.77;4.50;;;22.40;71.10;;;;;;5046629;28;20609;-54
2021/04/29 08:02:42;;;;;;;5.43;4.93;;;22.90;68.80;;;;;;5047987;28;20462;-54
2021/04/29 08:05:09;;;;;;;5.67;5.07;;;23.20;66.00;;;;;;5039431;28;20523;-55
2021/04/29 08:07:35;;;;;;;7.00;6.33;;;23.30;65.90;;;;;;5049047;28;20434;-56
2021/04/29 08:10:01;;;;;;;6.27;5.73;;;23.80;63.40;;;;;;5047502;28;20459;-56
2021/04/29 08:12:27;;;;;;;5.90;5.40;;;23.80;61.40;;;;;;5042435;28;20883;-56
2021/04/29 08:14:56;;;;;;;5.83;5.37;;;24.30;59.70;;;;;;5047075;28;20952;-56
2021/04/29 08:17:22;;;;;;;5.20;4.77;;;24.30;58.00;;;;;;5041920;28;20295;-55
2021/04/29 08:19:47;;;;;;;6.67;5.87;;;23.40;59.00;;;;;;5049793;28;20456;-54
2021/04/29 08:22:13;;;;;;;7.03;6.43;;;21.70;62.70;;;;;;5049467;28;20197;-55
2021/04/29 08:24:39;;;;;;;6.97;6.37;;;22.80;63.10;;;;;;5047440;28;20174;-55
2021/04/29 08:27:04;;;;;;;7.93;5.43;;;23.10;59.60;;;;;;5045633;28;20262;-55
2021/04/29 08:29:30;;;;;;;6.70;6.10;;;23.10;59.60;;;;;;5042334;28;20185;-56
2021/04/29 08:31:56;;;;;;;7.17;6.57;;;22.30;60.20;;;;;;5049528;28;20351;-55
2021/04/29 08:34:21;;;;;;;7.20;6.50;;;21.70;62.50;;;;;;5048042;28;20559;-55
2021/04/29 08:36:50;;;;;;;8.43;7.17;;;21.10;63.20;;;;;;5047823;28;20301;-55
2021/04/29 08:39:15;;;;;;;6.50;6.00;;;21.20;65.20;;;;;;5049990;28;20301;-56
2021/04/29 08:41:43;;;;;;;8.13;6.77;;;22.00;62.40;;;;;;5049760;28;20660;-53
2021/04/29 08:44:09;;;;;;;6.50;5.97;;;22.10;62.40;;;;;;5048546;28;20177;-53
2021/04/29 08:46:35;;;;;;;7.63;6.90;;;21.70;62.10;;;;;;5049801;28;20853;-56
2021/04/29 08:49:01;;;;;;;7.67;6.97;;;21.60;63.20;;;;;;5047075;28;20181;-55
2021/04/29 08:51:27;;;;;;;8.03;7.20;;;21.10;63.30;;;;;;5050795;28;20574;-54
2021/04/29 08:53:54;;;;;;;7.47;6.87;;;20.90;64.00;;;;;;5046032;28;20834;-54
2021/04/29 08:56:23;;;;;;;8.20;7.40;;;20.40;64.80;;;;;;5049116;28;20767;-53
2021/04/29 08:58:57;;;;;;;8.05;7.25;;;20.10;64.90;;;;;;5044031;28;20205;-57
2021/04/29 09:01:23;;;;;;;9.48;7.47;;;19.80;65.90;;;;;;5042510;28;20594;-52
2021/04/29 09:03:49;;;;;;;8.93;8.13;;;20.40;64.60;;;;;;5047605;28;20288;-54
2021/04/29 09:06:14;;;;;;;8.17;7.37;;;20.10;65.80;;;;;;5047740;28;20331;-52
2021/04/29 09:08:42;;;;;;;7.70;7.00;;;19.90;65.00;;;;;;5047147;28;20259;-52
2021/04/29 09:11:15;;;;;;;10.05;7.28;;;19.40;66.50;;;;;;5047552;28;20438;-52
2021/04/29 09:13:56;;;;;;;7.57;6.88;;;18.80;68.20;;;;;;5048667;28;20213;-52
2021/04/29 09:16:22;;;;;;;9.68;7.38;;;18.60;69.80;;;;;;5028492;28;20221;-53
2021/04/29 09:18:48;;;;;;;9.63;7.28;;;18.30;69.20;;;;;;5047554;28;20221;-53
2021/04/29 09:21:14;;;;;;;8.40;7.60;;;18.10;70.20;;;;;;5048251;28;20195;-52
2021/04/29 09:23:46;;;;;;;8.00;7.30;;;18.10;71.20;;;;;;5046892;28;20201;-51
2021/04/29 09:26:14;;;;;;;8.52;7.35;;;17.90;71.30;;;;;;5042883;28;21034;-50
2021/04/29 09:28:43;;;;;;;7.80;7.00;;;17.60;73.10;;;;;;5049544;28;20320;-51
2021/04/29 09:31:12;;;;;;;7.90;7.20;;;17.60;74.90;;;;;;5046422;28;20343;-51
2021/04/29 09:33:40;;;;;;;7.57;6.85;;;17.50;75.40;;;;;;5047139;28;20566;-51
2021/04/29 09:36:08;;;;;;;8.75;7.35;;;17.10;78.20;;;;;;5047703;28;20669;-50
2021/04/29 09:38:39;;;;;;;11.35;8.05;;;17.00;89.10;;;;;;5047234;28;20209;-51
2021/04/29 09:41:08;;;;;;;8.63;6.70;;;16.60;92.80;;;;;;5046327;28;20258;-50
2021/04/29 09:43:34;;;;;;;10.98;8.20;;;15.50;94.60;;;;;;5045754;28;20197;-50
2021/04/29 09:46:04;;;;;;;8.73;7.95;;;15.00;98.60;;;;;;5047585;28;20189;-50
2021/04/29 09:48:38;;;;;;;7.78;7.03;;;15.20;99.90;;;;;;5044117;28;20190;-52
2021/04/29 09:51:06;;;;;;;8.68;6.82;;;15.00;99.90;;;;;;5048952;28;20506;-53
2021/04/29 09:53:46;;;;;;;9.32;6.90;;;14.50;99.90;;;;;;5042338;28;20198;-50
2021/04/29 09:56:13;;;;;;;10.13;6.93;;;14.40;99.90;;;;;;5041110;28;20192;-52
2021/04/29 09:58:45;;;;;;;10.25;8.40;;;14.40;99.90;;;;;;5047488;28;20573;-51
2021/04/29 10:01:11;;;;;;;8.10;7.25;;;14.20;99.90;;;;;;5046042;28;20178;-53
2021/04/29 10:03:38;;;;;;;7.95;7.10;;;14.40;99.90;;;;;;5047116;28;20551;-51
2021/04/29 10:06:05;;;;;;;7.35;6.43;;;15.20;99.90;;;;;;5046162;28;20182;-53
2021/04/29 10:08:34;;;;;;;7.15;6.55;;;16.40;99.90;;;;;;5046742;28;20185;-54
2021/04/29 10:11:02;;;;;;;8.10;6.72;;;17.10;97.70;;;;;;5046576;28;20246;-53
2021/04/29 10:13:33;;;;;;;9.55;7.32;;;18.00;97.20;;;;;;5047337;28;20208;-51
2021/04/29 10:16:00;;;;;;;7.45;6.85;;;18.50;96.80;;;;;;5044168;28;20260;-51
2021/04/29 10:18:27;;;;;;;12.00;7.22;;;18.80;94.70;;;;;;5046340;28;20416;-52
2021/04/29 10:20:55;;;;;;;11.60;10.50;;;19.50;95.00;;;;;;5046363;28;20192;-51
2021/04/29 10:23:22;;;;;;;6.97;6.45;;;19.50;94.50;;;;;;5040805;28;20194;-49
2021/04/29 10:25:58;;;;;;;8.25;7.45;;;19.70;90.90;;;;;;5042386;28;20551;-51
2021/04/29 10:28:44;;;;;;;8.63;7.20;;;20.10;91.40;;;;;;5043545;28;20211;-51
2021/04/29 10:31:24;;;;;;;7.53;6.82;;;20.40;89.30;;;;;;5046474;28;20193;-52
2021/04/29 10:33:53;;;;;;;7.55;6.85;;;20.20;88.40;;;;;;5046493;28;20204;-52
2021/04/29 10:36:19;;;;;;;6.70;5.93;;;20.60;83.70;;;;;;5046511;28;20264;-52
2021/04/29 10:38:45;;;;;;;8.30;7.57;;;20.70;83.60;;;;;;5046688;28;20213;-52
2021/04/29 10:41:25;;;;;;;7.63;6.60;;;21.20;83.20;;;;;;5041678;28;20174;-52
2021/04/29 10:43:53;;;;;;;8.18;6.50;;;21.10;80.20;;;;;;5032780;28;20455;-50
2021/04/29 10:46:32;;;;;;;7.07;6.47;;;20.80;79.10;;;;;;5041505;28;20251;-51
2021/04/29 10:49:00;;;;;;;7.57;5.78;;;20.10;79.10;;;;;;5045741;28;20203;-50
2021/04/29 10:51:34;;;;;;;5.80;5.30;;;20.20;79.20;;;;;;5043764;28;20644;-51
2021/04/29 10:54:18;;;;;;;6.00;5.55;;;20.30;76.20;;;;;;5041879;28;20272;-51
2021/04/29 10:56:58;;;;;;;6.20;5.60;;;20.30;73.80;;;;;;5044956;28;20245;-51
2021/04/29 10:59:42;;;;;;;6.60;5.95;;;20.60;71.90;;;;;;5048285;28;20209;-51
2021/04/29 11:02:29;;;;;;;6.32;5.10;;;20.50;71.20;;;;;;5045756;28;20647;-52
2021/04/29 11:04:55;;;;;;;6.63;6.03;;;20.20;71.20;;;;;;5040263;28;20182;-52
2021/04/29 11:07:23;;;;;;;8.63;5.90;;;20.60;73.20;;;;;;5044785;28;20225;-51
2021/04/29 11:10:11;;;;;;;10.38;6.30;;;21.00;74.20;;;;;;5044622;28;20186;-51
2021/04/29 11:12:56;;;;;;;7.07;5.82;;;21.10;73.30;;;;;;5043577;28;20201;-51
2021/04/29 11:15:40;;;;;;;7.13;5.70;;;21.00;71.20;;;;;;5042309;28;20190;-51
2021/04/29 11:18:16;;;;;;;6.40;5.80;;;21.00;74.00;;;;;;5042813;28;20691;-51
2021/04/29 11:20:59;;;;;;;6.53;5.00;;;21.20;73.40;;;;;;5045900;28;20200;-52
2021/04/29 11:23:37;;;;;;;5.35;4.85;;;21.10;68.40;;;;;;5043842;28;20742;-51
2021/04/29 11:26:17;;;;;;;4.88;4.47;;;20.70;67.80;;;;;;5043299;28;20236;-52
2021/04/29 11:28:47;;;;;;;4.70;4.30;;;20.10;70.40;;;;;;5039098;28;20205;-53
2021/04/29 11:31:13;;;;;;;4.70;4.30;;;19.70;69.80;;;;;;5042747;28;20198;-53
2021/04/29 11:33:46;;;;;;;4.80;4.20;;;18.90;69.20;;;;;;5046720;28;20206;-53
2021/04/29 11:36:21;;;;;;;5.90;4.82;;;18.50;70.90;;;;;;5046698;28;20482;-54
2021/04/29 11:38:56;;;;;;;5.13;4.60;;;18.40;73.90;;;;;;5049221;28;20225;-52
2021/04/29 11:41:24;;;;;;;4.97;4.10;;;17.90;73.30;;;;;;5047553;28;20285;-52
2021/04/29 11:43:56;;;;;;;7.18;4.00;;;17.60;74.70;;;;;;5048844;28;20695;-52
2021/04/29 11:46:22;;;;;;;4.20;3.80;;;17.50;74.50;;;;;;5048313;28;20189;-51
2021/04/29 11:48:55;;;;;;;5.53;4.25;;;17.40;75.50;;;;;;5049920;28;20189;-54
2021/04/29 11:51:22;;;;;;;5.40;4.28;;;17.30;74.80;;;;;;5041633;28;20224;-54
2021/04/29 11:53:47;;;;;;;5.68;3.75;;;17.00;74.70;;;;;;5045857;28;20210;-52
2021/04/29 11:56:14;;;;;;;4.40;4.00;;;17.10;74.60;;;;;;5050642;28;20186;-51
2021/04/29 11:58:40;;;;;;;4.57;4.18;;;16.50;75.90;;;;;;5041363;28;20471;-52
2021/04/29 12:01:12;;;;;;;4.57;4.17;;;16.40;77.10;;;;;;5048104;28;20182;-51
2021/04/29 12:03:38;;;;;;;6.60;4.18;;;16.40;77.00;;;;;;5045904;28;20499;-51
2021/04/29 12:06:04;;;;;;;6.90;4.03;;;16.40;78.40;;;;;;5044598;28;20274;-51
2021/04/29 12:08:33;;;;;;;4.37;3.97;;;16.50;80.20;;;;;;5046447;28;20441;-51
2021/04/29 12:11:04;;;;;;;4.43;4.03;;;16.40;79.50;;;;;;5044647;28;20440;-51
2021/04/29 12:13:38;;;;;;;4.35;3.80;;;16.40;78.20;;;;;;5056639;28;20221;-52
2021/04/29 12:16:08;;;;;;;6.78;3.80;;;16.90;77.80;;;;;;5042221;28;20317;-53
2021/04/29 12:18:38;;;;;;;4.68;4.10;;;16.90;76.20;;;;;;5048309;28;20572;-53
2021/04/29 12:21:05;;;;;;;3.95;3.45;;;17.20;77.80;;;;;;5046725;28;20185;-52
2021/04/29 12:23:31;;;;;;;6.32;3.95;;;17.30;74.90;;;;;;5045984;28;20228;-52
2021/04/29 12:25:57;;;;;;;4.60;4.00;;;17.50;74.80;;;;;;5044282;28;20679;-52
2021/04/29 12:28:29;;;;;;;3.63;3.33;;;17.70;72.10;;;;;;5048272;28;20479;-53
2021/04/29 12:30:55;;;;;;;5.85;3.90;;;17.20;72.50;;;;;;5056751;28;20243;-52
2021/04/29 12:33:20;;;;;;;4.07;3.37;;;17.30;72.60;;;;;;5047289;28;20427;-51
2021/04/29 12:35:47;;;;;;;5.07;3.70;;;17.60;73.10;;;;;;5049085;28;20272;-54
2021/04/29 12:38:14;;;;;;;4.20;3.75;;;17.30;73.90;;;;;;5048334;28;20259;-53
2021/04/29 12:40:40;;;;;;;4.18;3.55;;;17.30;75.50;;;;;;5041459;28;20188;-52
2021/04/29 12:43:28;;;;;;;3.85;3.55;;;17.40;75.30;;;;;;5042682;28;20209;-52
2021/04/29 12:45:57;;;;;;;4.28;3.65;;;17.40;76.10;;;;;;5045729;28;20625;-55
2021/04/29 12:48:30;;;;;;;7.07;3.88;;;17.50;75.50;;;;;;5049222;28;20181;-56